sensor_id;sensor_type;location;lat;lon;timestamp;P1;durP1;ratioP1;P2;durP2;ratioP2
36989;SDS011;22898;52.102;5.776;2024-02-14T00:02:09;3.38;;;1.83;;
36989;SDS011;22898;52.102;5.776;2024-02-14T00:04:34;2.22;;;1.80;;
36989;SDS011;22898;52.102;5.776;2024-02-14T00:07:00;3.30;;;1.65;;
36989;SDS011;22898;52.102;5.776;2024-02-14T00:09:26;3.95;;;1.75;;
36989;SDS011;22898;52.102;5.776;2024-02-14T00:11:51;6.20;;;1.90;;
36989;SDS011;22898;52.102;5.776;2024-02-14T00:14:17;2.22;;;1.70;;
36989;SDS011;22898;52.102;5.776;2024-02-14T00:16:48;2.08;;;1.75;;
36989;SDS011;22898;52.102;5.776;2024-02-14T00:19:13;4.03;;;1.88;;
36989;SDS011;22898;52.102;5.776;2024-02-14T00:21:39;3.83;;;1.58;;
36989;SDS011;22898;52.102;5.776;2024-02-14T00:24:05;2.35;;;1.55;;
36989;SDS011;22898;52.102;5.776;2024-02-14T00:26:31;2.03;;;1.70;;
36989;SDS011;22898;52.102;5.776;2024-02-14T00:28:57;2.72;;;1.77;;
36989;SDS011;22898;52.102;5.776;2024-02-14T00:31:22;3.40;;;1.83;;
36989;SDS011;22898;52.102;5.776;2024-02-14T00:33:48;3.03;;;1.88;;
36989;SDS011;22898;52.102;5.776;2024-02-14T00:36:14;2.38;;;1.48;;
36989;SDS011;22898;52.102;5.776;2024-02-14T00:38:39;2.80;;;1.70;;
36989;SDS011;22898;52.102;5.776;2024-02-14T00:41:05;2.03;;;1.40;;
36989;SDS011;22898;52.102;5.776;2024-02-14T00:43:31;1.80;;;1.60;;
36989;SDS011;22898;52.102;5.776;2024-02-14T00:45:56;4.70;;;1.63;;
36989;SDS011;22898;52.102;5.776;2024-02-14T00:48:22;2.47;;;2.08;;
36989;SDS011;22898;52.102;5.776;2024-02-14T00:50:48;2.88;;;1.48;;
36989;SDS011;22898;52.102;5.776;2024-02-14T00:53:14;3.30;;;1.70;;
36989;SDS011;22898;52.102;5.776;2024-02-14T00:55:39;1.98;;;1.42;;
36989;SDS011;22898;52.102;5.776;2024-02-14T00:58:05;2.53;;;1.88;;
36989;SDS011;22898;52.102;5.776;2024-02-14T01:00:31;2.17;;;1.50;;
36989;SDS011;22898;52.102;5.776;2024-02-14T01:02:57;3.50;;;1.80;;
36989;SDS011;22898;52.102;5.776;2024-02-14T01:05:23;3.60;;;2.10;;
36989;SDS011;22898;52.102;5.776;2024-02-14T01:07:49;2.97;;;1.90;;
36989;SDS011;22898;52.102;5.776;2024-02-14T01:10:14;1.83;;;1.48;;
36989;SDS011;22898;52.102;5.776;2024-02-14T01:12:40;2.88;;;1.70;;
36989;SDS011;22898;52.102;5.776;2024-02-14T01:15:06;2.72;;;1.40;;
36989;SDS011;22898;52.102;5.776;2024-02-14T01:17:32;2.90;;;1.85;;
36989;SDS011;22898;52.102;5.776;2024-02-14T01:20:00;3.47;;;2.00;;
36989;SDS011;22898;52.102;5.776;2024-02-14T01:22:27;3.13;;;2.03;;
36989;SDS011;22898;52.102;5.776;2024-02-14T01:24:53;4.65;;;2.72;;
36989;SDS011;22898;52.102;5.776;2024-02-14T01:27:19;4.32;;;2.33;;
36989;SDS011;22898;52.102;5.776;2024-02-14T01:29:46;2.80;;;2.13;;
36989;SDS011;22898;52.102;5.776;2024-02-14T01:32:12;4.30;;;2.10;;
36989;SDS011;22898;52.102;5.776;2024-02-14T01:34:38;5.50;;;2.40;;
36989;SDS011;22898;52.102;5.776;2024-02-14T01:37:03;4.53;;;2.38;;
36989;SDS011;22898;52.102;5.776;2024-02-14T01:39:29;3.92;;;2.15;;
36989;SDS011;22898;52.102;5.776;2024-02-14T01:41:56;3.22;;;2.40;;
36989;SDS011;22898;52.102;5.776;2024-02-14T01:44:21;4.72;;;2.38;;
36989;SDS011;22898;52.102;5.776;2024-02-14T01:46:47;4.68;;;2.83;;
36989;SDS011;22898;52.102;5.776;2024-02-14T01:49:12;3.78;;;2.53;;
36989;SDS011;22898;52.102;5.776;2024-02-14T01:51:42;3.58;;;2.28;;
36989;SDS011;22898;52.102;5.776;2024-02-14T01:54:10;5.03;;;2.92;;
36989;SDS011;22898;52.102;5.776;2024-02-14T01:56:38;6.60;;;2.58;;
36989;SDS011;22898;52.102;5.776;2024-02-14T01:59:04;6.60;;;3.00;;
36989;SDS011;22898;52.102;5.776;2024-02-14T02:01:31;6.95;;;3.13;;
36989;SDS011;22898;52.102;5.776;2024-02-14T02:03:57;3.92;;;2.28;;
36989;SDS011;22898;52.102;5.776;2024-02-14T02:06:23;5.15;;;3.13;;
36989;SDS011;22898;52.102;5.776;2024-02-14T02:08:51;4.13;;;2.72;;
36989;SDS011;22898;52.102;5.776;2024-02-14T02:11:17;5.03;;;3.40;;
36989;SDS011;22898;52.102;5.776;2024-02-14T02:13:42;5.90;;;2.30;;
36989;SDS011;22898;52.102;5.776;2024-02-14T02:16:08;4.72;;;3.08;;
36989;SDS011;22898;52.102;5.776;2024-02-14T02:18:34;4.38;;;2.88;;
36989;SDS011;22898;52.102;5.776;2024-02-14T02:21:00;3.80;;;2.42;;
36989;SDS011;22898;52.102;5.776;2024-02-14T02:23:29;4.00;;;2.28;;
36989;SDS011;22898;52.102;5.776;2024-02-14T02:25:56;3.67;;;2.55;;
36989;SDS011;22898;52.102;5.776;2024-02-14T02:28:21;3.70;;;2.10;;
36989;SDS011;22898;52.102;5.776;2024-02-14T02:30:47;5.85;;;3.08;;
36989;SDS011;22898;52.102;5.776;2024-02-14T02:33:13;4.78;;;2.67;;
36989;SDS011;22898;52.102;5.776;2024-02-14T02:35:41;3.65;;;2.40;;
36989;SDS011;22898;52.102;5.776;2024-02-14T02:38:07;4.75;;;2.55;;
36989;SDS011;22898;52.102;5.776;2024-02-14T02:40:32;4.53;;;2.95;;
36989;SDS011;22898;52.102;5.776;2024-02-14T02:42:58;5.00;;;2.92;;
36989;SDS011;22898;52.102;5.776;2024-02-14T02:45:25;8.18;;;3.58;;
36989;SDS011;22898;52.102;5.776;2024-02-14T02:47:51;4.38;;;2.63;;
36989;SDS011;22898;52.102;5.776;2024-02-14T02:50:17;4.40;;;2.95;;
36989;SDS011;22898;52.102;5.776;2024-02-14T02:52:42;5.25;;;3.15;;
36989;SDS011;22898;52.102;5.776;2024-02-14T02:55:08;3.70;;;2.30;;
36989;SDS011;22898;52.102;5.776;2024-02-14T02:57:35;3.70;;;2.47;;
36989;SDS011;22898;52.102;5.776;2024-02-14T03:00:02;4.82;;;2.53;;
36989;SDS011;22898;52.102;5.776;2024-02-14T03:02:30;3.80;;;2.67;;
36989;SDS011;22898;52.102;5.776;2024-02-14T03:04:56;3.95;;;2.33;;
36989;SDS011;22898;52.102;5.776;2024-02-14T03:07:22;4.72;;;2.50;;
36989;SDS011;22898;52.102;5.776;2024-02-14T03:09:48;3.30;;;2.13;;
36989;SDS011;22898;52.102;5.776;2024-02-14T03:12:14;5.32;;;2.65;;
36989;SDS011;22898;52.102;5.776;2024-02-14T03:14:41;4.93;;;3.22;;
36989;SDS011;22898;52.102;5.776;2024-02-14T03:17:08;4.55;;;2.97;;
36989;SDS011;22898;52.102;5.776;2024-02-14T03:19:35;8.52;;;3.13;;
36989;SDS011;22898;52.102;5.776;2024-02-14T03:22:03;4.38;;;2.83;;
36989;SDS011;22898;52.102;5.776;2024-02-14T03:24:30;6.43;;;2.92;;
36989;SDS011;22898;52.102;5.776;2024-02-14T03:27:00;3.60;;;2.60;;
36989;SDS011;22898;52.102;5.776;2024-02-14T03:29:26;5.97;;;2.55;;
36989;SDS011;22898;52.102;5.776;2024-02-14T03:31:52;4.00;;;2.70;;
36989;SDS011;22898;52.102;5.776;2024-02-14T03:34:18;2.80;;;2.03;;
36989;SDS011;22898;52.102;5.776;2024-02-14T03:36:44;4.30;;;2.45;;
36989;SDS011;22898;52.102;5.776;2024-02-14T03:39:13;3.90;;;2.58;;
36989;SDS011;22898;52.102;5.776;2024-02-14T03:41:38;4.60;;;2.75;;
36989;SDS011;22898;52.102;5.776;2024-02-14T03:44:04;3.85;;;2.88;;
36989;SDS011;22898;52.102;5.776;2024-02-14T03:46:33;5.05;;;2.80;;
36989;SDS011;22898;52.102;5.776;2024-02-14T03:49:00;4.82;;;2.67;;
36989;SDS011;22898;52.102;5.776;2024-02-14T03:51:26;8.27;;;3.58;;
36989;SDS011;22898;52.102;5.776;2024-02-14T03:53:52;4.82;;;3.38;;
36989;SDS011;22898;52.102;5.776;2024-02-14T03:56:17;4.93;;;3.25;;
36989;SDS011;22898;52.102;5.776;2024-02-14T03:58:43;5.75;;;3.90;;
36989;SDS011;22898;52.102;5.776;2024-02-14T04:01:09;5.78;;;3.53;;
36989;SDS011;22898;52.102;5.776;2024-02-14T04:03:34;6.70;;;4.40;;
36989;SDS011;22898;52.102;5.776;2024-02-14T04:06:00;7.07;;;3.92;;
36989;SDS011;22898;52.102;5.776;2024-02-14T04:08:26;7.93;;;4.15;;
36989;SDS011;22898;52.102;5.776;2024-02-14T04:10:52;8.23;;;4.78;;
36989;SDS011;22898;52.102;5.776;2024-02-14T04:13:19;7.28;;;4.18;;
36989;SDS011;22898;52.102;5.776;2024-02-14T04:15:46;8.15;;;4.50;;
36989;SDS011;22898;52.102;5.776;2024-02-14T04:18:12;8.50;;;3.58;;
36989;SDS011;22898;52.102;5.776;2024-02-14T04:20:39;10.82;;;4.90;;
36989;SDS011;22898;52.102;5.776;2024-02-14T04:23:06;7.68;;;4.45;;
36989;SDS011;22898;52.102;5.776;2024-02-14T04:25:32;12.88;;;5.80;;
36989;SDS011;22898;52.102;5.776;2024-02-14T04:27:59;10.75;;;5.22;;
36989;SDS011;22898;52.102;5.776;2024-02-14T04:30:25;6.35;;;4.80;;
36989;SDS011;22898;52.102;5.776;2024-02-14T04:32:51;8.88;;;5.63;;
36989;SDS011;22898;52.102;5.776;2024-02-14T04:35:17;8.48;;;5.03;;
36989;SDS011;22898;52.102;5.776;2024-02-14T04:37:48;9.35;;;4.60;;
36989;SDS011;22898;52.102;5.776;2024-02-14T04:40:14;8.55;;;5.15;;
36989;SDS011;22898;52.102;5.776;2024-02-14T04:42:43;10.68;;;5.43;;
36989;SDS011;22898;52.102;5.776;2024-02-14T04:45:09;10.90;;;5.18;;
36989;SDS011;22898;52.102;5.776;2024-02-14T04:47:34;10.07;;;5.47;;
36989;SDS011;22898;52.102;5.776;2024-02-14T04:50:00;11.02;;;4.90;;
36989;SDS011;22898;52.102;5.776;2024-02-14T04:52:28;9.82;;;5.07;;
36989;SDS011;22898;52.102;5.776;2024-02-14T04:54:54;8.85;;;5.90;;
36989;SDS011;22898;52.102;5.776;2024-02-14T04:57:21;9.25;;;6.32;;
36989;SDS011;22898;52.102;5.776;2024-02-14T04:59:47;8.82;;;5.18;;
36989;SDS011;22898;52.102;5.776;2024-02-14T05:02:12;8.55;;;5.45;;
36989;SDS011;22898;52.102;5.776;2024-02-14T05:04:38;13.02;;;6.20;;
36989;SDS011;22898;52.102;5.776;2024-02-14T05:07:04;13.32;;;6.38;;
36989;SDS011;22898;52.102;5.776;2024-02-14T05:09:30;17.95;;;6.03;;
36989;SDS011;22898;52.102;5.776;2024-02-14T05:11:55;9.25;;;5.65;;
36989;SDS011;22898;52.102;5.776;2024-02-14T05:14:21;8.75;;;5.75;;
36989;SDS011;22898;52.102;5.776;2024-02-14T05:16:48;13.95;;;5.93;;
36989;SDS011;22898;52.102;5.776;2024-02-14T05:19:14;8.77;;;5.80;;
36989;SDS011;22898;52.102;5.776;2024-02-14T05:21:39;9.75;;;5.88;;
36989;SDS011;22898;52.102;5.776;2024-02-14T05:24:05;8.63;;;5.88;;
36989;SDS011;22898;52.102;5.776;2024-02-14T05:26:31;11.25;;;5.30;;
36989;SDS011;22898;52.102;5.776;2024-02-14T05:28:58;11.18;;;6.13;;
36989;SDS011;22898;52.102;5.776;2024-02-14T05:31:24;12.13;;;5.43;;
36989;SDS011;22898;52.102;5.776;2024-02-14T05:33:50;12.10;;;6.00;;
36989;SDS011;22898;52.102;5.776;2024-02-14T05:36:15;16.08;;;6.18;;
36989;SDS011;22898;52.102;5.776;2024-02-14T05:38:42;10.88;;;5.70;;
36989;SDS011;22898;52.102;5.776;2024-02-14T05:41:07;10.40;;;5.88;;
36989;SDS011;22898;52.102;5.776;2024-02-14T05:43:33;10.82;;;5.93;;
36989;SDS011;22898;52.102;5.776;2024-02-14T05:45:59;9.02;;;5.50;;
36989;SDS011;22898;52.102;5.776;2024-02-14T05:48:25;12.27;;;5.22;;
36989;SDS011;22898;52.102;5.776;2024-02-14T05:50:51;8.73;;;5.25;;
36989;SDS011;22898;52.102;5.776;2024-02-14T05:53:16;7.30;;;5.20;;
36989;SDS011;22898;52.102;5.776;2024-02-14T05:55:42;9.05;;;6.00;;
36989;SDS011;22898;52.102;5.776;2024-02-14T05:58:08;7.68;;;5.50;;
36989;SDS011;22898;52.102;5.776;2024-02-14T06:00:34;8.25;;;6.15;;
36989;SDS011;22898;52.102;5.776;2024-02-14T06:02:59;12.35;;;5.85;;
36989;SDS011;22898;52.102;5.776;2024-02-14T06:05:25;8.70;;;6.05;;
36989;SDS011;22898;52.102;5.776;2024-02-14T06:07:51;8.82;;;6.00;;
36989;SDS011;22898;52.102;5.776;2024-02-14T06:10:17;9.10;;;6.15;;
36989;SDS011;22898;52.102;5.776;2024-02-14T06:12:43;8.13;;;5.90;;
36989;SDS011;22898;52.102;5.776;2024-02-14T06:15:09;10.07;;;5.80;;
36989;SDS011;22898;52.102;5.776;2024-02-14T06:17:35;12.57;;;5.65;;
36989;SDS011;22898;52.102;5.776;2024-02-14T06:20:00;7.82;;;5.22;;
36989;SDS011;22898;52.102;5.776;2024-02-14T06:22:31;9.02;;;5.72;;
36989;SDS011;22898;52.102;5.776;2024-02-14T06:24:57;8.52;;;5.28;;
36989;SDS011;22898;52.102;5.776;2024-02-14T06:27:23;9.77;;;5.43;;
36989;SDS011;22898;52.102;5.776;2024-02-14T06:29:49;12.55;;;6.38;;
36989;SDS011;22898;52.102;5.776;2024-02-14T06:32:14;8.18;;;5.68;;
36989;SDS011;22898;52.102;5.776;2024-02-14T06:34:40;8.15;;;4.80;;
36989;SDS011;22898;52.102;5.776;2024-02-14T06:37:05;7.53;;;4.45;;
36989;SDS011;22898;52.102;5.776;2024-02-14T06:39:31;7.07;;;5.20;;
36989;SDS011;22898;52.102;5.776;2024-02-14T06:41:57;9.32;;;5.65;;
36989;SDS011;22898;52.102;5.776;2024-02-14T06:44:23;6.80;;;4.78;;
36989;SDS011;22898;52.102;5.776;2024-02-14T06:46:49;7.60;;;5.18;;
36989;SDS011;22898;52.102;5.776;2024-02-14T06:49:15;10.85;;;5.25;;
36989;SDS011;22898;52.102;5.776;2024-02-14T06:51:41;9.07;;;4.97;;
36989;SDS011;22898;52.102;5.776;2024-02-14T06:54:07;7.97;;;5.13;;
36989;SDS011;22898;52.102;5.776;2024-02-14T06:56:33;6.88;;;4.78;;
36989;SDS011;22898;52.102;5.776;2024-02-14T06:58:59;7.15;;;4.53;;
36989;SDS011;22898;52.102;5.776;2024-02-14T07:01:31;9.23;;;4.38;;
36989;SDS011;22898;52.102;5.776;2024-02-14T07:03:57;6.40;;;4.38;;
36989;SDS011;22898;52.102;5.776;2024-02-14T07:06:23;6.32;;;4.03;;
36989;SDS011;22898;52.102;5.776;2024-02-14T07:08:49;9.20;;;4.88;;
36989;SDS011;22898;52.102;5.776;2024-02-14T07:11:14;7.10;;;4.85;;
36989;SDS011;22898;52.102;5.776;2024-02-14T07:13:41;5.55;;;3.80;;
36989;SDS011;22898;52.102;5.776;2024-02-14T07:16:07;8.18;;;4.85;;
36989;SDS011;22898;52.102;5.776;2024-02-14T07:18:33;6.20;;;3.95;;
36989;SDS011;22898;52.102;5.776;2024-02-14T07:20:59;7.22;;;4.78;;
36989;SDS011;22898;52.102;5.776;2024-02-14T07:23:25;7.30;;;4.10;;
36989;SDS011;22898;52.102;5.776;2024-02-14T07:25:51;8.05;;;4.50;;
36989;SDS011;22898;52.102;5.776;2024-02-14T07:28:17;8.88;;;5.32;;
36989;SDS011;22898;52.102;5.776;2024-02-14T07:30:42;9.20;;;5.45;;
36989;SDS011;22898;52.102;5.776;2024-02-14T07:33:09;8.95;;;5.68;;
36989;SDS011;22898;52.102;5.776;2024-02-14T07:35:36;11.68;;;6.00;;
36989;SDS011;22898;52.102;5.776;2024-02-14T07:38:02;8.93;;;5.57;;
36989;SDS011;22898;52.102;5.776;2024-02-14T07:40:27;8.80;;;5.30;;
36989;SDS011;22898;52.102;5.776;2024-02-14T07:42:56;8.30;;;5.85;;
36989;SDS011;22898;52.102;5.776;2024-02-14T07:45:22;8.25;;;5.80;;
36989;SDS011;22898;52.102;5.776;2024-02-14T07:47:49;9.35;;;5.85;;
36989;SDS011;22898;52.102;5.776;2024-02-14T07:50:15;9.52;;;5.45;;
36989;SDS011;22898;52.102;5.776;2024-02-14T07:52:44;7.55;;;5.00;;
36989;SDS011;22898;52.102;5.776;2024-02-14T07:55:13;10.50;;;5.40;;
36989;SDS011;22898;52.102;5.776;2024-02-14T07:57:39;8.20;;;4.95;;
36989;SDS011;22898;52.102;5.776;2024-02-14T08:00:06;10.13;;;5.40;;
36989;SDS011;22898;52.102;5.776;2024-02-14T08:02:35;10.45;;;5.65;;
36989;SDS011;22898;52.102;5.776;2024-02-14T08:05:02;12.32;;;6.28;;
36989;SDS011;22898;52.102;5.776;2024-02-14T08:07:29;8.77;;;5.20;;
36989;SDS011;22898;52.102;5.776;2024-02-14T08:09:55;10.02;;;6.25;;
36989;SDS011;22898;52.102;5.776;2024-02-14T08:12:21;11.88;;;5.93;;
36989;SDS011;22898;52.102;5.776;2024-02-14T08:14:48;10.00;;;6.25;;
36989;SDS011;22898;52.102;5.776;2024-02-14T08:17:13;10.77;;;6.28;;
36989;SDS011;22898;52.102;5.776;2024-02-14T08:19:39;11.18;;;6.05;;
36989;SDS011;22898;52.102;5.776;2024-02-14T08:22:05;7.70;;;5.47;;
36989;SDS011;22898;52.102;5.776;2024-02-14T08:24:32;10.10;;;5.80;;
36989;SDS011;22898;52.102;5.776;2024-02-14T08:26:57;11.27;;;6.07;;
36989;SDS011;22898;52.102;5.776;2024-02-14T08:29:23;8.57;;;5.13;;
36989;SDS011;22898;52.102;5.776;2024-02-14T08:31:49;10.30;;;5.65;;
36989;SDS011;22898;52.102;5.776;2024-02-14T08:34:14;8.05;;;5.10;;
36989;SDS011;22898;52.102;5.776;2024-02-14T08:36:43;11.18;;;5.57;;
36989;SDS011;22898;52.102;5.776;2024-02-14T08:39:09;9.50;;;5.60;;
36989;SDS011;22898;52.102;5.776;2024-02-14T08:41:36;9.10;;;5.60;;
36989;SDS011;22898;52.102;5.776;2024-02-14T08:44:02;7.95;;;4.57;;
36989;SDS011;22898;52.102;5.776;2024-02-14T08:46:29;10.48;;;6.38;;
36989;SDS011;22898;52.102;5.776;2024-02-14T08:48:55;9.15;;;5.20;;
36989;SDS011;22898;52.102;5.776;2024-02-14T08:51:21;9.15;;;5.68;;
36989;SDS011;22898;52.102;5.776;2024-02-14T08:53:47;9.18;;;5.57;;
36989;SDS011;22898;52.102;5.776;2024-02-14T08:56:13;9.38;;;5.80;;
36989;SDS011;22898;52.102;5.776;2024-02-14T08:58:38;7.88;;;4.95;;
36989;SDS011;22898;52.102;5.776;2024-02-14T09:01:04;10.70;;;6.13;;
36989;SDS011;22898;52.102;5.776;2024-02-14T09:03:30;8.60;;;5.10;;
36989;SDS011;22898;52.102;5.776;2024-02-14T09:05:56;8.45;;;5.22;;
36989;SDS011;22898;52.102;5.776;2024-02-14T09:08:22;14.38;;;4.47;;
36989;SDS011;22898;52.102;5.776;2024-02-14T09:10:49;7.10;;;4.45;;
36989;SDS011;22898;52.102;5.776;2024-02-14T09:13:15;6.97;;;4.00;;
36989;SDS011;22898;52.102;5.776;2024-02-14T09:15:40;11.07;;;5.10;;
36989;SDS011;22898;52.102;5.776;2024-02-14T09:18:08;6.18;;;3.92;;
36989;SDS011;22898;52.102;5.776;2024-02-14T09:20:34;6.97;;;3.80;;
36989;SDS011;22898;52.102;5.776;2024-02-14T09:22:59;5.78;;;3.40;;
36989;SDS011;22898;52.102;5.776;2024-02-14T09:25:25;6.60;;;3.92;;
36989;SDS011;22898;52.102;5.776;2024-02-14T09:27:51;6.20;;;3.55;;
36989;SDS011;22898;52.102;5.776;2024-02-14T09:30:17;6.25;;;4.03;;
36989;SDS011;22898;52.102;5.776;2024-02-14T09:32:44;5.10;;;3.42;;
36989;SDS011;22898;52.102;5.776;2024-02-14T09:35:12;5.43;;;3.78;;
36989;SDS011;22898;52.102;5.776;2024-02-14T09:37:38;5.85;;;3.38;;
36989;SDS011;22898;52.102;5.776;2024-02-14T09:40:05;7.28;;;3.58;;
36989;SDS011;22898;52.102;5.776;2024-02-14T09:42:40;5.38;;;3.67;;
36989;SDS011;22898;52.102;5.776;2024-02-14T09:45:14;6.80;;;3.58;;
36989;SDS011;22898;52.102;5.776;2024-02-14T09:47:40;5.78;;;3.67;;
36989;SDS011;22898;52.102;5.776;2024-02-14T09:50:07;6.97;;;3.45;;
36989;SDS011;22898;52.102;5.776;2024-02-14T09:52:34;5.15;;;3.25;;
36989;SDS011;22898;52.102;5.776;2024-02-14T09:55:02;5.70;;;3.38;;
36989;SDS011;22898;52.102;5.776;2024-02-14T09:57:30;5.95;;;3.50;;
36989;SDS011;22898;52.102;5.776;2024-02-14T09:59:56;6.10;;;3.83;;
36989;SDS011;22898;52.102;5.776;2024-02-14T10:02:25;6.05;;;3.50;;
36989;SDS011;22898;52.102;5.776;2024-02-14T10:04:51;5.07;;;3.42;;
36989;SDS011;22898;52.102;5.776;2024-02-14T10:07:16;5.25;;;3.85;;
36989;SDS011;22898;52.102;5.776;2024-02-14T10:09:43;5.53;;;4.03;;
36989;SDS011;22898;52.102;5.776;2024-02-14T10:12:09;5.85;;;3.97;;
36989;SDS011;22898;52.102;5.776;2024-02-14T10:14:35;7.03;;;4.50;;
36989;SDS011;22898;52.102;5.776;2024-02-14T10:17:05;9.38;;;5.22;;
36989;SDS011;22898;52.102;5.776;2024-02-14T10:19:32;11.18;;;5.55;;
36989;SDS011;22898;52.102;5.776;2024-02-14T10:21:59;9.40;;;5.00;;
36989;SDS011;22898;52.102;5.776;2024-02-14T10:24:28;7.85;;;4.68;;
36989;SDS011;22898;52.102;5.776;2024-02-14T10:26:56;9.65;;;4.57;;
36989;SDS011;22898;52.102;5.776;2024-02-14T10:29:24;10.18;;;5.50;;
36989;SDS011;22898;52.102;5.776;2024-02-14T10:31:50;9.40;;;5.03;;
36989;SDS011;22898;52.102;5.776;2024-02-14T10:34:16;6.50;;;4.60;;
36989;SDS011;22898;52.102;5.776;2024-02-14T10:36:45;11.93;;;4.80;;
36989;SDS011;22898;52.102;5.776;2024-02-14T10:39:12;8.10;;;5.05;;
36989;SDS011;22898;52.102;5.776;2024-02-14T10:41:40;6.75;;;4.40;;
36989;SDS011;22898;52.102;5.776;2024-02-14T10:44:06;7.90;;;5.47;;
36989;SDS011;22898;52.102;5.776;2024-02-14T10:46:33;7.00;;;4.18;;
36989;SDS011;22898;52.102;5.776;2024-02-14T10:49:05;5.78;;;3.92;;
36989;SDS011;22898;52.102;5.776;2024-02-14T10:51:35;7.57;;;4.65;;
36989;SDS011;22898;52.102;5.776;2024-02-14T10:54:03;8.00;;;4.10;;
36989;SDS011;22898;52.102;5.776;2024-02-14T10:56:34;5.05;;;3.80;;
36989;SDS011;22898;52.102;5.776;2024-02-14T10:59:03;6.35;;;4.00;;
36989;SDS011;22898;52.102;5.776;2024-02-14T11:01:30;6.43;;;3.72;;
36989;SDS011;22898;52.102;5.776;2024-02-14T11:04:00;6.05;;;4.43;;
36989;SDS011;22898;52.102;5.776;2024-02-14T11:06:27;6.13;;;4.28;;
36989;SDS011;22898;52.102;5.776;2024-02-14T11:08:56;6.70;;;3.92;;
36989;SDS011;22898;52.102;5.776;2024-02-14T11:11:22;5.82;;;3.70;;
36989;SDS011;22898;52.102;5.776;2024-02-14T11:13:51;9.70;;;3.80;;
36989;SDS011;22898;52.102;5.776;2024-02-14T11:16:18;7.20;;;3.92;;
36989;SDS011;22898;52.102;5.776;2024-02-14T11:18:47;6.93;;;3.42;;
36989;SDS011;22898;52.102;5.776;2024-02-14T11:21:16;6.22;;;3.88;;
36989;SDS011;22898;52.102;5.776;2024-02-14T11:23:54;5.60;;;3.58;;
36989;SDS011;22898;52.102;5.776;2024-02-14T11:26:20;5.70;;;3.72;;
36989;SDS011;22898;52.102;5.776;2024-02-14T11:28:48;6.32;;;4.30;;
36989;SDS011;22898;52.102;5.776;2024-02-14T11:31:16;5.30;;;3.60;;
36989;SDS011;22898;52.102;5.776;2024-02-14T11:33:42;9.35;;;3.92;;
36989;SDS011;22898;52.102;5.776;2024-02-14T11:36:11;5.88;;;4.15;;
36989;SDS011;22898;52.102;5.776;2024-02-14T11:38:40;6.53;;;3.42;;
36989;SDS011;22898;52.102;5.776;2024-02-14T11:41:06;7.15;;;3.42;;
36989;SDS011;22898;52.102;5.776;2024-02-14T11:43:31;7.18;;;3.90;;
36989;SDS011;22898;52.102;5.776;2024-02-14T11:45:57;6.40;;;3.75;;
36989;SDS011;22898;52.102;5.776;2024-02-14T11:48:23;5.32;;;3.03;;
36989;SDS011;22898;52.102;5.776;2024-02-14T11:50:49;5.10;;;3.05;;
36989;SDS011;22898;52.102;5.776;2024-02-14T11:53:16;6.15;;;4.03;;
36989;SDS011;22898;52.102;5.776;2024-02-14T11:55:43;6.45;;;4.20;;
36989;SDS011;22898;52.102;5.776;2024-02-14T11:58:12;6.75;;;4.03;;
36989;SDS011;22898;52.102;5.776;2024-02-14T12:00:39;7.07;;;3.85;;
36989;SDS011;22898;52.102;5.776;2024-02-14T12:05:45;6.57;;;3.85;;
36989;SDS011;22898;52.102;5.776;2024-02-14T12:08:12;7.88;;;3.80;;
36989;SDS011;22898;52.102;5.776;2024-02-14T12:10:39;5.50;;;3.13;;
36989;SDS011;22898;52.102;5.776;2024-02-14T12:13:10;6.65;;;4.15;;
36989;SDS011;22898;52.102;5.776;2024-02-14T12:15:40;5.30;;;3.00;;
36989;SDS011;22898;52.102;5.776;2024-02-14T12:18:10;6.82;;;4.30;;
36989;SDS011;22898;52.102;5.776;2024-02-14T12:20:39;5.60;;;3.10;;
36989;SDS011;22898;52.102;5.776;2024-02-14T12:23:06;5.18;;;3.33;;
36989;SDS011;22898;52.102;5.776;2024-02-14T12:25:32;6.00;;;3.45;;
36989;SDS011;22898;52.102;5.776;2024-02-14T12:27:58;5.85;;;3.55;;
36989;SDS011;22898;52.102;5.776;2024-02-14T12:30:44;6.20;;;3.88;;
36989;SDS011;22898;52.102;5.776;2024-02-14T12:33:21;4.97;;;3.47;;
36989;SDS011;22898;52.102;5.776;2024-02-14T12:35:48;5.57;;;3.40;;
36989;SDS011;22898;52.102;5.776;2024-02-14T12:38:15;4.70;;;2.70;;
36989;SDS011;22898;52.102;5.776;2024-02-14T12:40:43;4.88;;;2.88;;
36989;SDS011;22898;52.102;5.776;2024-02-14T12:43:09;4.70;;;2.78;;
36989;SDS011;22898;52.102;5.776;2024-02-14T12:45:36;6.40;;;3.08;;
36989;SDS011;22898;52.102;5.776;2024-02-14T12:48:06;5.05;;;2.88;;
36989;SDS011;22898;52.102;5.776;2024-02-14T12:50:38;6.35;;;3.10;;
36989;SDS011;22898;52.102;5.776;2024-02-14T12:53:05;5.22;;;2.70;;
36989;SDS011;22898;52.102;5.776;2024-02-14T12:55:31;5.22;;;2.83;;
36989;SDS011;22898;52.102;5.776;2024-02-14T12:57:57;4.65;;;2.63;;
36989;SDS011;22898;52.102;5.776;2024-02-14T13:00:23;5.95;;;3.13;;
36989;SDS011;22898;52.102;5.776;2024-02-14T13:02:49;3.55;;;2.03;;
36989;SDS011;22898;52.102;5.776;2024-02-14T13:05:15;3.53;;;2.10;;
36989;SDS011;22898;52.102;5.776;2024-02-14T13:07:42;3.58;;;2.35;;
36989;SDS011;22898;52.102;5.776;2024-02-14T13:10:08;2.97;;;2.00;;
36989;SDS011;22898;52.102;5.776;2024-02-14T13:12:37;5.13;;;2.70;;
36989;SDS011;22898;52.102;5.776;2024-02-14T13:15:03;3.53;;;2.60;;
36989;SDS011;22898;52.102;5.776;2024-02-14T13:17:31;3.53;;;2.33;;
36989;SDS011;22898;52.102;5.776;2024-02-14T13:19:57;3.38;;;2.03;;
36989;SDS011;22898;52.102;5.776;2024-02-14T13:22:25;6.13;;;3.95;;
36989;SDS011;22898;52.102;5.776;2024-02-14T13:24:51;3.58;;;2.08;;
36989;SDS011;22898;52.102;5.776;2024-02-14T13:27:17;4.45;;;2.22;;
36989;SDS011;22898;52.102;5.776;2024-02-14T13:29:45;3.20;;;2.30;;
36989;SDS011;22898;52.102;5.776;2024-02-14T13:32:13;2.88;;;2.03;;
36989;SDS011;22898;52.102;5.776;2024-02-14T13:34:39;3.13;;;1.92;;
36989;SDS011;22898;52.102;5.776;2024-02-14T13:37:05;4.40;;;1.88;;
36989;SDS011;22898;52.102;5.776;2024-02-14T13:39:31;3.67;;;2.40;;
36989;SDS011;22898;52.102;5.776;2024-02-14T13:41:56;2.78;;;1.95;;
36989;SDS011;22898;52.102;5.776;2024-02-14T13:44:24;2.88;;;1.70;;
36989;SDS011;22898;52.102;5.776;2024-02-14T13:46:50;1.95;;;1.50;;
36989;SDS011;22898;52.102;5.776;2024-02-14T13:49:17;3.42;;;1.73;;
36989;SDS011;22898;52.102;5.776;2024-02-14T13:51:47;3.70;;;1.67;;
36989;SDS011;22898;52.102;5.776;2024-02-14T13:54:19;3.42;;;2.33;;
36989;SDS011;22898;52.102;5.776;2024-02-14T13:56:44;2.15;;;1.50;;
36989;SDS011;22898;52.102;5.776;2024-02-14T13:59:13;2.08;;;1.60;;
36989;SDS011;22898;52.102;5.776;2024-02-14T14:01:38;2.78;;;1.90;;
36989;SDS011;22898;52.102;5.776;2024-02-14T14:04:04;2.30;;;1.63;;
36989;SDS011;22898;52.102;5.776;2024-02-14T14:06:30;2.38;;;1.80;;
36989;SDS011;22898;52.102;5.776;2024-02-14T14:08:56;3.22;;;1.77;;
36989;SDS011;22898;52.102;5.776;2024-02-14T14:11:21;3.05;;;1.83;;
36989;SDS011;22898;52.102;5.776;2024-02-14T14:13:47;4.65;;;1.83;;
36989;SDS011;22898;52.102;5.776;2024-02-14T14:16:14;2.60;;;1.70;;
36989;SDS011;22898;52.102;5.776;2024-02-14T14:18:40;3.40;;;2.03;;
36989;SDS011;22898;52.102;5.776;2024-02-14T14:21:05;3.75;;;2.20;;
36989;SDS011;22898;52.102;5.776;2024-02-14T14:23:31;2.80;;;2.20;;
36989;SDS011;22898;52.102;5.776;2024-02-14T14:25:57;4.97;;;2.65;;
36989;SDS011;22898;52.102;5.776;2024-02-14T14:28:24;5.50;;;3.03;;
36989;SDS011;22898;52.102;5.776;2024-02-14T14:30:53;5.57;;;2.53;;
36989;SDS011;22898;52.102;5.776;2024-02-14T14:33:20;6.30;;;2.95;;
36989;SDS011;22898;52.102;5.776;2024-02-14T14:35:46;3.75;;;2.70;;
36989;SDS011;22898;52.102;5.776;2024-02-14T14:38:14;4.88;;;3.22;;
36989;SDS011;22898;52.102;5.776;2024-02-14T14:40:40;4.28;;;2.88;;
36989;SDS011;22898;52.102;5.776;2024-02-14T14:43:05;6.00;;;2.25;;
36989;SDS011;22898;52.102;5.776;2024-02-14T14:45:32;6.65;;;3.75;;